Time;durP1;ratioP1;P1;durP2;ratioP2;P2;SDS_P1;SDS_P2;PMS_P1;PMS_P2;Temp;Humidity;BMP_temperature;BMP_pressure;BME280_temperature;BME280_humidity;BME280_pressure;Samples;Min_cycle;Max_cycle;Signal;HPM_P1;HPM_P2
2022/11/04 00:01:36;;;;;;;66.40;12.20;;;11.60;99.90;;;;;;5045703;28;20173;-86
2022/11/04 00:04:02;;;;;;;66.57;12.20;;;11.50;99.90;;;;;;5047473;28;20169;-87
2022/11/04 00:06:27;;;;;;;65.60;11.07;;;11.50;99.90;;;;;;5047653;28;20195;-87
2022/11/04 00:08:55;;;;;;;66.83;10.47;;;11.50;99.90;;;;;;5047789;28;20215;-87
2022/11/04 00:14:08;;;;;;;66.60;10.73;;;11.40;99.90;;;;;;5048042;28;20160;-86
2022/11/04 00:19:18;;;;;;;66.40;11.40;;;11.40;99.90;;;;;;5047137;28;20200;-86
2022/11/04 00:30:08;;;;;;;67.03;13.32;;;11.40;99.90;;;;;;5047464;28;20330;-87
2022/11/04 00:35:20;;;;;;;74.50;15.63;;;11.50;99.90;;;;;;5045884;28;20161;-87
2022/11/04 00:37:45;;;;;;;71.40;24.60;;;11.40;99.90;;;;;;5043136;28;20624;-86
2022/11/04 00:40:14;;;;;;;74.90;31.23;;;11.40;99.90;;;;;;5042460;28;20203;-86
2022/11/04 00:42:41;;;;;;;71.30;24.90;;;11.40;99.90;;;;;;5043030;28;20179;-86
2022/11/04 00:45:07;;;;;;;70.03;21.15;;;11.40;99.90;;;;;;5044164;28;20172;-86
2022/11/04 00:47:33;;;;;;;71.53;22.73;;;11.50;99.90;;;;;;5045079;28;20181;-87
2022/11/04 00:49:58;;;;;;;70.83;22.90;;;11.50;99.90;;;;;;5045395;28;20423;-87
2022/11/04 00:52:24;;;;;;;72.47;24.37;;;11.50;99.90;;;;;;5042962;28;20261;-87
2022/11/04 00:54:50;;;;;;;72.00;24.63;;;11.50;99.90;;;;;;5045352;28;20176;-87
2022/11/04 00:57:15;;;;;;;69.80;22.40;;;11.60;99.90;;;;;;5041990;28;20199;-87
2022/11/04 00:59:41;;;;;;;70.20;22.50;;;11.50;99.90;;;;;;5043945;28;20189;-86
2022/11/04 01:02:08;;;;;;;72.30;22.90;;;11.50;99.90;;;;;;5044416;28;20172;-86
2022/11/04 01:04:34;;;;;;;69.55;18.48;;;11.50;99.90;;;;;;5042407;28;20185;-86
2022/11/04 01:07:01;;;;;;;72.93;25.90;;;11.50;99.90;;;;;;5044774;28;20185;-85
2022/11/04 01:09:26;;;;;;;76.15;27.45;;;11.40;99.90;;;;;;5043187;28;20769;-86
2022/11/04 01:11:52;;;;;;;72.70;25.83;;;11.30;99.90;;;;;;5043775;28;20170;-87
2022/11/04 01:14:18;;;;;;;71.60;27.43;;;11.30;99.90;;;;;;5042218;28;20188;-87
2022/11/04 01:16:44;;;;;;;71.13;21.27;;;11.30;99.90;;;;;;5042464;28;20169;-86
2022/11/04 01:19:10;;;;;;;71.53;23.73;;;11.30;99.90;;;;;;5044936;28;20188;-86
2022/11/04 01:21:36;;;;;;;71.77;23.73;;;11.20;99.90;;;;;;5044481;28;20181;-87
2022/11/04 01:24:02;;;;;;;72.77;25.97;;;11.20;99.90;;;;;;5045153;28;20408;-86
2022/11/04 01:26:29;;;;;;;70.70;22.98;;;11.20;99.90;;;;;;5044178;28;20196;-87
2022/11/04 01:28:56;;;;;;;69.35;20.10;;;11.10;99.90;;;;;;5044483;28;20276;-87
2022/11/04 01:31:28;;;;;;;71.35;19.85;;;11.10;99.90;;;;;;5045591;28;20183;-86
2022/11/04 01:33:54;;;;;;;71.80;22.88;;;11.00;99.90;;;;;;5043502;28;20203;-86
2022/11/04 01:36:21;;;;;;;74.32;18.50;;;11.00;99.90;;;;;;5042946;28;20169;-86
2022/11/04 01:38:47;;;;;;;69.75;14.82;;;11.00;99.90;;;;;;5044921;28;20617;-86
2022/11/04 01:41:22;;;;;;;67.75;13.43;;;11.00;99.90;;;;;;5043247;28;20271;-86
2022/11/04 01:44:03;;;;;;;68.28;10.77;;;11.00;99.90;;;;;;5043182;28;20604;-86
2022/11/04 01:46:45;;;;;;;67.75;10.43;;;11.00;99.90;;;;;;5044282;28;20185;-86
2022/11/04 01:49:28;;;;;;;68.25;12.70;;;10.90;99.90;;;;;;5044113;28;20187;-86
2022/11/04 01:52:05;;;;;;;68.93;10.38;;;11.00;99.90;;;;;;5048654;28;20150;-86
2022/11/04 01:54:33;;;;;;;66.70;11.57;;;10.80;99.90;;;;;;5048623;28;20145;-86
2022/11/04 01:57:01;;;;;;;64.88;7.57;;;10.80;99.90;;;;;;5049009;28;20173;-87
2022/11/04 01:59:33;;;;;;;66.72;8.13;;;10.90;99.90;;;;;;5048715;28;20254;-86
2022/11/04 02:01:58;;;;;;;70.00;13.43;;;10.70;99.90;;;;;;5049790;28;20188;-87
2022/11/04 02:04:24;;;;;;;66.00;8.03;;;10.60;99.90;;;;;;5048744;28;20173;-86
2022/11/04 02:06:53;;;;;;;68.80;10.73;;;10.60;99.90;;;;;;5049737;28;20189;-87
2022/11/04 02:09:20;;;;;;;67.47;13.00;;;10.60;99.90;;;;;;5048952;28;20454;-87
2022/11/04 02:14:32;;;;;;;70.30;11.38;;;10.50;99.90;;;;;;5050818;28;20241;-86
2022/11/04 02:17:06;;;;;;;66.15;8.25;;;10.50;99.90;;;;;;5050447;28;20161;-87
2022/11/04 02:19:57;;;;;;;65.13;7.95;;;10.50;99.90;;;;;;5050458;28;20224;-87
2022/11/04 02:22:44;;;;;;;66.60;8.57;;;10.50;99.90;;;;;;5050801;28;20169;-87
2022/11/04 02:25:22;;;;;;;65.90;8.05;;;10.60;99.90;;;;;;5051062;28;20193;-86
2022/11/04 02:28:09;;;;;;;66.40;6.55;;;10.50;99.90;;;;;;5049050;28;20192;-86
2022/11/04 02:31:06;;;;;;;69.30;8.85;;;10.40;99.90;;;;;;5051423;28;20203;-86
2022/11/04 02:33:59;;;;;;;65.13;7.00;;;10.40;99.90;;;;;;5050956;28;20171;-87
2022/11/04 02:36:49;;;;;;;66.18;9.50;;;10.40;99.90;;;;;;5052241;28;20234;-87
2022/11/04 02:39:31;;;;;;;66.32;8.07;;;10.30;99.90;;;;;;5032223;28;20228;-87
2022/11/04 02:42:08;;;;;;;67.53;8.45;;;10.20;99.90;;;;;;5052269;28;20161;-87
2022/11/04 02:44:45;;;;;;;67.15;8.93;;;10.20;99.90;;;;;;5052134;28;20161;-87
2022/11/04 02:47:20;;;;;;;65.80;9.55;;;10.20;99.90;;;;;;5052833;28;20183;-86
2022/11/04 02:50:28;;;;;;;69.25;7.78;;;10.20;99.90;;;;;;5052832;28;20183;-87
2022/11/04 02:53:02;;;;;;;66.72;8.75;;;10.20;99.90;;;;;;5022832;28;20240;-86
2022/11/04 02:55:40;;;;;;;65.88;8.70;;;10.10;99.90;;;;;;5050719;28;20192;-87
2022/11/04 02:58:11;;;;;;;69.93;12.02;;;10.10;99.90;;;;;;5050138;28;20166;-87
2022/11/04 03:00:41;;;;;;;65.55;9.32;;;10.00;99.90;;;;;;5050235;28;20251;-86
2022/11/04 03:03:16;;;;;;;69.47;12.10;;;10.00;99.90;;;;;;5048833;28;20173;-86
2022/11/04 03:05:46;;;;;;;69.90;14.80;;;10.00;99.90;;;;;;5052167;28;20160;-87
2022/11/04 03:08:19;;;;;;;67.93;13.23;;;10.00;99.90;;;;;;5051064;28;20204;-86
2022/11/04 03:10:50;;;;;;;77.53;16.73;;;10.00;99.90;;;;;;5050267;28;20579;-86
2022/11/04 03:13:24;;;;;;;69.07;19.25;;;10.00;99.90;;;;;;5066553;28;20185;-86
2022/11/04 03:15:57;;;;;;;72.18;23.35;;;10.00;99.90;;;;;;5050815;28;20172;-86
2022/11/04 03:18:35;;;;;;;70.20;16.15;;;10.00;99.90;;;;;;5049997;28;20165;-84
2022/11/04 03:21:05;;;;;;;68.82;16.52;;;10.10;99.90;;;;;;5051698;28;20679;-86
2022/11/04 03:23:31;;;;;;;71.03;17.20;;;10.00;99.90;;;;;;5050340;28;20169;-86
2022/11/04 03:26:10;;;;;;;72.38;13.80;;;10.00;99.90;;;;;;5050476;28;20181;-86
2022/11/04 03:28:57;;;;;;;72.55;13.02;;;10.00;99.90;;;;;;5066153;28;20165;-86
2022/11/04 03:31:36;;;;;;;68.10;10.77;;;10.00;99.90;;;;;;5051072;28;20648;-86
2022/11/04 03:34:02;;;;;;;69.03;14.90;;;10.00;99.90;;;;;;5049634;28;20172;-86
2022/11/04 03:36:29;;;;;;;68.50;17.57;;;9.90;99.90;;;;;;5049065;28;20173;-86
2022/11/04 03:38:54;;;;;;;71.88;18.35;;;9.90;99.90;;;;;;5048096;28;20189;-85
2022/11/04 03:41:28;;;;;;;68.60;13.23;;;9.90;99.90;;;;;;5047878;28;20222;-86
2022/11/04 03:43:53;;;;;;;72.70;18.90;;;9.90;99.90;;;;;;5050386;28;20153;-87
2022/11/04 03:46:21;;;;;;;70.93;13.90;;;9.80;99.90;;;;;;5050140;28;20185;-86
2022/11/04 03:48:47;;;;;;;70.07;16.08;;;9.90;99.90;;;;;;5048575;28;20181;-86
2022/11/04 03:51:16;;;;;;;71.97;18.07;;;9.80;99.90;;;;;;5049106;28;20157;-86
2022/11/04 03:53:41;;;;;;;69.85;18.73;;;9.80;99.90;;;;;;5064471;28;20408;-86
2022/11/04 03:56:13;;;;;;;73.47;23.70;;;9.80;99.90;;;;;;5049331;28;20172;-86
2022/11/04 03:59:22;;;;;;;72.00;14.35;;;9.80;99.90;;;;;;5049377;28;20157;-86
2022/11/04 04:02:15;;;;;;;70.10;14.30;;;9.80;99.90;;;;;;5047250;28;20223;-86
2022/11/04 04:04:59;;;;;;;71.38;15.52;;;9.90;99.90;;;;;;5049926;28;20161;-86
2022/11/04 04:07:51;;;;;;;69.97;12.48;;;9.90;99.90;;;;;;5049655;28;20177;-86
2022/11/04 04:10:41;;;;;;;67.50;9.30;;;9.90;99.90;;;;;;5030419;28;20288;-86
2022/11/04 04:13:29;;;;;;;72.28;11.45;;;10.00;99.90;;;;;;5048180;28;20161;-86
2022/11/04 04:16:10;;;;;;;68.43;10.70;;;9.90;99.90;;;;;;5050650;28;20154;-86
2022/11/04 04:18:50;;;;;;;71.32;9.75;;;9.90;99.90;;;;;;5050552;28;20165;-86
2022/11/04 04:21:20;;;;;;;80.63;9.23;;;9.90;99.90;;;;;;5050537;28;20498;-86
2022/11/04 04:29:23;;;;;;;73.32;19.98;;;9.70;99.90;;;;;;5049244;28;20196;-86
2022/11/04 04:31:51;;;;;;;69.85;19.10;;;9.60;99.90;;;;;;5050527;28;20252;-86
2022/11/04 04:34:20;;;;;;;79.18;25.23;;;9.70;99.90;;;;;;5048358;28;20166;-86
2022/11/04 04:37:05;;;;;;;72.80;24.67;;;9.60;99.90;;;;;;5048818;28;20169;-86
2022/11/04 04:45:39;;;;;;;70.85;14.25;;;9.60;99.90;;;;;;5050094;28;20237;-86
2022/11/04 04:48:07;;;;;;;72.68;14.00;;;9.70;99.90;;;;;;5050137;28;20208;-86
2022/11/04 04:50:43;;;;;;;67.55;10.88;;;9.70;99.90;;;;;;5065966;28;20208;-86
2022/11/04 04:53:09;;;;;;;69.20;11.20;;;9.70;99.90;;;;;;5048491;28;20141;-86
2022/11/04 04:55:35;;;;;;;68.82;9.38;;;9.60;99.90;;;;;;5050658;28;20217;-86
2022/11/04 04:58:00;;;;;;;68.47;9.17;;;9.60;99.90;;;;;;5048899;28;20635;-86
2022/11/04 05:00:26;;;;;;;67.80;10.00;;;9.60;99.90;;;;;;5050047;28;20195;-86
2022/11/04 05:02:52;;;;;;;70.50;9.70;;;9.50;99.90;;;;;;5048951;28;20174;-86
2022/11/04 05:05:18;;;;;;;69.10;10.23;;;9.40;99.90;;;;;;5050251;28;20167;-86
2022/11/04 05:07:43;;;;;;;67.53;11.17;;;9.40;99.90;;;;;;5049380;28;20185;-86
2022/11/04 05:10:13;;;;;;;73.03;12.63;;;9.40;99.90;;;;;;5048567;28;20442;-86
2022/11/04 05:15:24;;;;;;;69.13;10.27;;;9.20;99.90;;;;;;5050196;28;20237;-86
2022/11/04 05:17:54;;;;;;;68.68;12.90;;;9.20;99.90;;;;;;5048908;28;20236;-86
2022/11/04 05:20:21;;;;;;;71.60;14.88;;;9.10;99.90;;;;;;5048361;28;20200;-86
2022/11/04 05:22:46;;;;;;;70.53;14.90;;;9.10;99.90;;;;;;5048827;28;20184;-86
2022/11/04 05:25:12;;;;;;;69.60;14.80;;;9.00;99.90;;;;;;5047590;28;20165;-86
2022/11/04 05:27:38;;;;;;;72.90;13.27;;;8.90;99.90;;;;;;5049403;28;20185;-86
2022/11/04 05:30:04;;;;;;;69.87;13.60;;;9.00;99.90;;;;;;5048569;28;20459;-86
2022/11/04 05:32:31;;;;;;;71.13;13.18;;;8.90;99.90;;;;;;5048203;28;20193;-86
2022/11/04 05:34:57;;;;;;;73.03;28.87;;;8.70;99.90;;;;;;5048984;28;20183;-86
2022/11/04 05:37:22;;;;;;;78.07;29.43;;;8.60;99.90;;;;;;5049259;28;20245;-86
2022/11/04 05:39:48;;;;;;;71.30;24.93;;;8.60;99.90;;;;;;5049643;28;20423;-86
2022/11/04 05:42:14;;;;;;;78.10;21.50;;;8.60;99.90;;;;;;5048944;28;20165;-86
2022/11/04 05:44:39;;;;;;;70.67;19.80;;;8.50;99.90;;;;;;5049019;28;20170;-86
2022/11/04 05:47:05;;;;;;;72.07;21.07;;;8.40;99.90;;;;;;5049643;28;20260;-86
2022/11/04 05:49:31;;;;;;;72.23;17.13;;;8.40;99.90;;;;;;5050200;28;20177;-86
2022/11/04 05:51:56;;;;;;;70.27;16.63;;;8.40;99.90;;;;;;5048350;28;20172;-86
2022/11/04 05:54:22;;;;;;;71.13;17.80;;;8.40;99.90;;;;;;5048816;28;20169;-86
2022/11/04 05:56:48;;;;;;;72.97;20.40;;;8.40;99.90;;;;;;5049203;28;20169;-86
2022/11/04 05:59:13;;;;;;;70.80;18.93;;;8.50;99.90;;;;;;5048631;28;20200;-86
2022/11/04 06:01:41;;;;;;;80.23;22.10;;;8.50;99.90;;;;;;5048570;28;20172;-86
2022/11/04 06:04:13;;;;;;;72.68;20.30;;;8.60;99.90;;;;;;5047109;28;20174;-86
2022/11/04 06:06:39;;;;;;;72.65;19.88;;;8.60;99.90;;;;;;5048357;28;20212;-86
2022/11/04 06:09:05;;;;;;;73.70;19.67;;;8.60;99.90;;;;;;5047896;28;20186;-86
2022/11/04 06:11:32;;;;;;;70.97;21.40;;;8.60;99.90;;;;;;5046883;28;20176;-86
2022/11/04 06:13:58;;;;;;;71.25;17.27;;;8.70;99.90;;;;;;5049061;28;20172;-86
2022/11/04 06:16:24;;;;;;;77.80;19.17;;;8.60;99.90;;;;;;5048584;28;20169;-86
2022/11/04 06:18:51;;;;;;;73.20;19.40;;;8.50;99.90;;;;;;5049502;28;20185;-86
2022/11/04 06:21:23;;;;;;;73.47;22.40;;;8.50;99.90;;;;;;5047939;28;20173;-86
2022/11/04 06:23:50;;;;;;;70.88;19.15;;;8.50;99.90;;;;;;5047784;28;20195;-86
2022/11/04 06:26:15;;;;;;;72.32;17.35;;;8.50;99.90;;;;;;5047579;28;20196;-86
2022/11/04 06:28:41;;;;;;;70.87;18.67;;;8.40;99.90;;;;;;5046872;28;20170;-86
2022/11/04 06:31:09;;;;;;;76.73;18.07;;;8.40;99.90;;;;;;5046591;28;20207;-86
2022/11/04 06:33:35;;;;;;;69.85;19.25;;;8.50;99.90;;;;;;5046054;28;20498;-86
2022/11/04 06:36:03;;;;;;;71.70;19.20;;;8.60;99.90;;;;;;5047021;28;20173;-86
2022/11/04 06:38:31;;;;;;;69.63;16.75;;;8.60;99.90;;;;;;5048783;28;20412;-86
2022/11/04 06:40:57;;;;;;;72.63;23.27;;;8.50;99.90;;;;;;5050963;28;20207;-86
2022/11/04 06:43:24;;;;;;;73.05;19.90;;;8.40;99.90;;;;;;5051973;28;20183;-86
2022/11/04 06:45:56;;;;;;;77.57;20.83;;;8.30;99.90;;;;;;5051171;28;20173;-86
2022/11/04 06:48:22;;;;;;;73.78;23.08;;;8.40;99.90;;;;;;5050128;28;20197;-86
2022/11/04 06:50:47;;;;;;;73.13;19.80;;;8.40;99.90;;;;;;5050778;28;20192;-87
2022/11/04 06:53:13;;;;;;;71.40;22.23;;;8.40;99.90;;;;;;5051199;28;20165;-86
2022/11/04 06:55:39;;;;;;;75.93;21.90;;;8.40;99.90;;;;;;5050746;28;20188;-86
2022/11/04 06:58:04;;;;;;;71.27;22.47;;;8.40;99.90;;;;;;5050452;28;20213;-86
2022/11/04 07:00:30;;;;;;;77.10;24.33;;;8.50;99.90;;;;;;5048835;28;20192;-86
2022/11/04 07:02:56;;;;;;;77.15;24.42;;;8.60;99.90;;;;;;5065715;28;20166;-86
2022/11/04 07:05:22;;;;;;;75.00;24.90;;;8.60;99.90;;;;;;5048281;28;20223;-85
2022/11/04 07:07:48;;;;;;;73.78;21.10;;;8.60;99.90;;;;;;5048881;28;20452;-86
2022/11/04 07:10:15;;;;;;;74.40;21.80;;;8.60;99.90;;;;;;5049207;28;20196;-86
2022/11/04 07:12:42;;;;;;;74.70;23.58;;;8.60;99.90;;;;;;5048761;28;20663;-86
2022/11/04 07:15:08;;;;;;;76.00;23.35;;;8.60;99.90;;;;;;5049631;28;20579;-86
2022/11/04 07:17:33;;;;;;;77.95;23.85;;;8.60;99.90;;;;;;5048922;28;20193;-86
2022/11/04 07:19:59;;;;;;;73.00;22.93;;;8.60;99.90;;;;;;5049824;28;20665;-86
2022/11/04 07:22:25;;;;;;;74.77;25.87;;;8.60;99.90;;;;;;5049308;28;20173;-86
2022/11/04 07:24:50;;;;;;;78.57;25.60;;;8.70;99.90;;;;;;5048084;28;20200;-86
2022/11/04 07:27:16;;;;;;;82.43;24.17;;;8.70;99.90;;;;;;5048911;28;20197;-86
2022/11/04 07:29:42;;;;;;;76.53;29.60;;;8.70;99.90;;;;;;5050568;28;20224;-86
2022/11/04 07:32:07;;;;;;;76.93;28.53;;;8.90;99.90;;;;;;5049883;28;20158;-86
2022/11/04 07:34:33;;;;;;;77.87;26.20;;;8.80;99.90;;;;;;5047771;28;20165;-86
2022/11/04 07:36:59;;;;;;;77.30;26.67;;;8.80;99.90;;;;;;5049699;28;20173;-86
2022/11/04 07:39:24;;;;;;;75.67;24.93;;;8.80;99.90;;;;;;5048141;28;20193;-86
2022/11/04 07:41:50;;;;;;;75.60;27.67;;;8.90;99.90;;;;;;5050080;28;20189;-86
2022/11/04 07:44:16;;;;;;;80.90;27.57;;;8.90;99.90;;;;;;5048402;28;20177;-86
2022/11/04 07:46:42;;;;;;;73.97;28.13;;;8.90;99.90;;;;;;5049383;28;20276;-86
2022/11/04 07:49:07;;;;;;;80.73;29.37;;;8.90;99.90;;;;;;5048940;28;20188;-86
2022/11/04 07:51:33;;;;;;;74.83;24.83;;;9.10;99.90;;;;;;5050106;28;20251;-86
2022/11/04 07:53:59;;;;;;;76.67;27.77;;;9.10;99.90;;;;;;5050642;28;20173;-86
2022/11/04 07:56:25;;;;;;;77.10;27.27;;;9.10;99.90;;;;;;5050577;28;20412;-87
2022/11/04 07:58:52;;;;;;;74.30;27.58;;;9.20;99.90;;;;;;5049740;28;20420;-86
2022/11/04 08:01:22;;;;;;;76.53;29.55;;;9.20;99.90;;;;;;5050111;28;20181;-86
2022/11/04 08:03:48;;;;;;;76.20;25.98;;;9.30;99.90;;;;;;5049083;28;20241;-87
2022/11/04 08:06:16;;;;;;;79.25;26.98;;;9.30;99.90;;;;;;5048469;28;20232;-86
2022/11/04 08:08:42;;;;;;;75.53;25.90;;;9.30;99.90;;;;;;5047965;28;20172;-86
2022/11/04 08:11:11;;;;;;;73.70;26.10;;;9.30;99.90;;;;;;5050048;28;20161;-86
2022/11/04 08:13:37;;;;;;;84.40;30.42;;;9.30;99.90;;;;;;5048748;28;20165;-87
2022/11/04 08:16:11;;;;;;;74.55;25.35;;;9.30;99.90;;;;;;5047746;28;20170;-86
2022/11/04 08:18:37;;;;;;;76.85;25.70;;;9.40;99.90;;;;;;5047849;28;20169;-86
2022/11/04 08:21:03;;;;;;;74.80;24.47;;;9.40;99.90;;;;;;5048781;28;20231;-86
2022/11/04 08:23:29;;;;;;;76.68;25.77;;;9.50;99.90;;;;;;5049408;28;20412;-86
2022/11/04 08:25:56;;;;;;;82.97;28.05;;;9.60;99.90;;;;;;5047794;28;20165;-87
2022/11/04 08:28:23;;;;;;;77.22;32.67;;;9.70;99.90;;;;;;5044584;28;20203;-87
2022/11/04 08:31:03;;;;;;;77.38;32.92;;;9.80;99.90;;;;;;5043841;28;20663;-88
2022/11/04 08:33:31;;;;;;;79.97;36.15;;;9.90;99.90;;;;;;5042671;28;20187;-87
2022/11/04 08:36:05;;;;;;;78.50;35.08;;;9.90;99.90;;;;;;5048806;28;20168;-87
2022/11/04 08:38:33;;;;;;;78.10;35.53;;;10.10;99.90;;;;;;5046632;28;20159;-87
2022/11/04 08:41:00;;;;;;;79.05;32.50;;;10.20;99.90;;;;;;5047110;28;20162;-87
2022/11/04 08:43:26;;;;;;;77.15;31.35;;;10.40;99.90;;;;;;5047299;28;20174;-86
2022/11/04 08:45:52;;;;;;;73.18;23.60;;;10.40;99.90;;;;;;5048486;28;20216;-87
2022/11/04 08:48:19;;;;;;;80.10;28.20;;;10.50;99.90;;;;;;5047170;28;20200;-87
2022/11/04 08:50:52;;;;;;;82.10;28.50;;;10.40;99.90;;;;;;5046683;28;20193;-87
2022/11/04 08:53:18;;;;;;;73.93;18.83;;;10.50;99.90;;;;;;5047174;28;20146;-87
2022/11/04 08:55:44;;;;;;;80.28;34.10;;;10.40;99.90;;;;;;5047468;28;20157;-87
2022/11/04 08:58:11;;;;;;;76.00;28.30;;;10.40;99.90;;;;;;5046715;28;20174;-87
2022/11/04 09:00:37;;;;;;;74.88;24.75;;;10.40;99.90;;;;;;5048923;28;20207;-87
2022/11/04 09:03:03;;;;;;;72.72;21.85;;;10.40;99.90;;;;;;5048191;28;20162;-87
2022/11/04 09:05:29;;;;;;;72.43;23.70;;;10.40;99.90;;;;;;5046787;28;20176;-87
2022/11/04 09:07:56;;;;;;;73.55;25.85;;;10.40;99.90;;;;;;5048209;28;20193;-87
2022/11/04 09:10:22;;;;;;;77.88;30.75;;;10.50;99.90;;;;;;5046688;28;20193;-87
2022/11/04 09:12:47;;;;;;;78.13;31.42;;;10.60;99.90;;;;;;5046836;28;20161;-87
2022/11/04 09:15:13;;;;;;;81.93;33.90;;;10.60;99.90;;;;;;5048303;28;20524;-86
2022/11/04 09:17:39;;;;;;;84.70;34.10;;;10.70;99.90;;;;;;5047008;28;20609;-87
2022/11/04 09:20:06;;;;;;;89.78;27.17;;;10.80;99.90;;;;;;5048874;28;20189;-87
2022/11/04 09:22:32;;;;;;;73.50;25.70;;;11.00;99.90;;;;;;5046384;28;20197;-87
2022/11/04 09:24:58;;;;;;;75.05;18.23;;;11.00;99.90;;;;;;5047277;28;20182;-87
2022/11/04 09:27:23;;;;;;;76.40;22.23;;;11.10;99.90;;;;;;5046329;28;20202;-87
2022/11/04 09:29:49;;;;;;;71.87;20.23;;;11.10;99.90;;;;;;5047596;28;20193;-86
2022/11/04 09:32:15;;;;;;;73.63;20.80;;;11.00;99.90;;;;;;5046826;28;20165;-87
2022/11/04 09:34:41;;;;;;;72.70;18.23;;;11.00;99.90;;;;;;5046101;28;20188;-86
2022/11/04 09:37:06;;;;;;;73.13;19.67;;;11.00;99.90;;;;;;5046643;28;20165;-87
2022/11/04 09:39:32;;;;;;;74.10;18.33;;;11.10;99.90;;;;;;5044784;28;20198;-87
2022/11/04 09:42:08;;;;;;;83.10;26.03;;;11.10;99.90;;;;;;5046366;28;20165;-86
2022/11/04 09:44:47;;;;;;;78.35;23.85;;;11.10;99.90;;;;;;5046794;28;20503;-87
2022/11/04 09:47:13;;;;;;;77.25;23.13;;;11.10;99.90;;;;;;5047124;28;20177;-87
2022/11/04 09:49:43;;;;;;;79.30;23.13;;;11.10;99.90;;;;;;5046965;28;20268;-86
2022/11/04 09:52:19;;;;;;;75.45;23.88;;;11.20;99.90;;;;;;5045032;28;20168;-86
2022/11/04 09:54:57;;;;;;;74.60;24.83;;;11.40;99.90;;;;;;5047130;28;20184;-86
2022/11/04 09:57:23;;;;;;;73.20;19.40;;;11.60;99.90;;;;;;5045591;28;20258;-86
2022/11/04 09:59:49;;;;;;;73.18;15.52;;;11.80;99.90;;;;;;5047176;28;20188;-86
2022/11/04 10:02:59;;;;;;;72.33;15.20;;;11.90;99.90;;;;;;5045161;28;20177;-87
2022/11/04 10:05:53;;;;;;;74.78;16.20;;;11.90;99.90;;;;;;5035509;28;20416;-86
2022/11/04 10:08:40;;;;;;;74.65;17.08;;;11.80;99.90;;;;;;5046136;28;20191;-87
2022/11/04 10:11:35;;;;;;;71.90;16.92;;;11.80;99.90;;;;;;5045461;28;20162;-87
2022/11/04 10:14:26;;;;;;;76.35;16.00;;;11.90;99.90;;;;;;5049364;28;20223;-87
2022/11/04 10:17:39;;;;;;;75.70;17.38;;;11.90;99.90;;;;;;5049301;28;20172;-87
2022/11/04 10:20:32;;;;;;;73.15;18.35;;;12.20;99.90;;;;;;5049032;28;20211;-87
2022/11/04 10:23:07;;;;;;;75.57;17.48;;;12.10;99.90;;;;;;5049486;28;20161;-87
2022/11/04 10:25:46;;;;;;;70.38;15.15;;;12.00;99.90;;;;;;5049688;28;20165;-87
2022/11/04 10:28:17;;;;;;;74.65;17.05;;;12.10;99.90;;;;;;5048784;28;20177;-87
2022/11/04 10:30:46;;;;;;;71.78;18.40;;;12.00;99.90;;;;;;5048987;28;20242;-86
2022/11/04 10:33:18;;;;;;;69.15;14.60;;;12.00;99.90;;;;;;5049558;28;20169;-87
2022/11/04 10:35:49;;;;;;;69.15;14.50;;;12.00;99.90;;;;;;5049817;28;20166;-87
2022/11/04 10:39:02;;;;;;;77.05;16.55;;;12.00;99.90;;;;;;5047926;28;20165;-87
2022/11/04 10:41:34;;;;;;;72.05;14.70;;;12.10;99.90;;;;;;5046807;28;20187;-87
2022/11/04 10:44:09;;;;;;;74.05;13.05;;;12.30;99.90;;;;;;5047627;28;20215;-87
2022/11/04 10:47:06;;;;;;;76.22;11.82;;;12.30;99.90;;;;;;5047662;28;20248;-87
2022/11/04 10:49:47;;;;;;;69.07;11.15;;;12.30;99.90;;;;;;5046950;28;20767;-87
2022/11/04 10:52:18;;;;;;;67.65;9.15;;;12.30;99.90;;;;;;5063429;28;20648;-87
2022/11/04 10:54:46;;;;;;;72.70;10.23;;;12.30;99.90;;;;;;5047351;28;20172;-87
2022/11/04 10:57:27;;;;;;;69.03;9.20;;;12.40;99.90;;;;;;5040607;28;20181;-87
2022/11/04 11:00:20;;;;;;;69.90;9.35;;;12.40;99.90;;;;;;5046907;28;20262;-87
2022/11/04 11:02:47;;;;;;;73.28;10.63;;;12.40;99.90;;;;;;5047480;28;20180;-87
2022/11/04 11:05:23;;;;;;;68.67;9.23;;;12.40;99.90;;;;;;5047420;28;20689;-86
2022/11/04 11:07:52;;;;;;;68.80;11.40;;;12.50;99.90;;;;;;5047324;28;20451;-87
2022/11/04 11:10:35;;;;;;;70.88;9.63;;;12.70;99.90;;;;;;5047225;28;20427;-87
2022/11/04 11:13:07;;;;;;;69.72;8.40;;;12.70;99.90;;;;;;5046925;28;20180;-87
2022/11/04 11:16:17;;;;;;;68.00;6.95;;;12.80;99.90;;;;;;5047801;28;20150;-87
2022/11/04 11:19:23;;;;;;;69.93;9.10;;;13.10;99.90;;;;;;5045426;28;20200;-86
2022/11/04 11:22:24;;;;;;;72.20;12.20;;;13.40;99.90;;;;;;5044807;28;20416;-87
2022/11/04 11:25:41;;;;;;;67.77;9.10;;;13.50;99.90;;;;;;5041667;28;20411;-87
2022/11/04 11:28:49;;;;;;;70.30;7.40;;;13.70;99.90;;;;;;5047861;28;20460;-87
2022/11/04 11:31:22;;;;;;;70.80;6.70;;;13.60;99.90;;;;;;5139638;22;20531;-83
2022/11/04 11:34:34;;;;;;;67.20;6.00;;;13.60;99.90;;;;;;5081561;28;20417;-83
2022/11/04 11:37:02;;;;;;;67.67;5.93;;;13.70;99.90;;;;;;5068007;28;20489;-83
2022/11/04 11:39:31;;;;;;;67.90;5.93;;;14.00;99.90;;;;;;5079646;28;20422;-83
2022/11/04 11:46:03;;;;;;;66.70;6.10;;;14.30;99.90;;;;;;5079824;28;20382;-83
2022/11/04 11:56:29;;;;;;;68.77;6.30;;;14.20;96.50;;;;;;5036122;28;20454;-83
2022/11/04 12:03:59;;;;;;;71.20;5.70;;;14.30;81.60;;;;;;5035346;28;20467;-85
2022/11/04 12:06:42;;;;;;;65.23;5.13;;;14.20;87.70;;;;;;5037129;28;20420;-85
2022/11/04 12:09:30;;;;;;;69.17;5.53;;;14.10;90.30;;;;;;5038425;28;20435;-85
2022/11/04 12:12:27;;;;;;;67.20;7.20;;;14.20;86.40;;;;;;5038032;28;20392;-85
2022/11/04 12:15:30;;;;;;;71.40;6.93;;;14.30;93.30;;;;;;5038012;28;20895;-85
2022/11/04 12:18:29;;;;;;;69.97;7.50;;;14.20;82.60;;;;;;5038866;28;20407;-85
2022/11/04 12:21:17;;;;;;;68.57;7.57;;;14.20;94.60;;;;;;5038594;28;20389;-85
2022/11/04 12:23:50;;;;;;;71.77;7.67;;;14.20;92.80;;;;;;5021006;28;20423;-85
2022/11/04 12:26:36;;;;;;;70.03;7.67;;;13.90;94.80;;;;;;5037519;28;20775;-85
2022/11/04 12:29:28;;;;;;;71.47;6.13;;;13.80;93.20;;;;;;5020673;28;20458;-85
2022/11/04 12:31:57;;;;;;;69.60;6.67;;;13.70;98.90;;;;;;5020578;28;20400;-86
2022/11/04 12:34:51;;;;;;;69.60;7.00;;;13.60;99.30;;;;;;5037301;28;20495;-85
2022/11/04 12:37:26;;;;;;;70.20;7.10;;;13.60;99.90;;;;;;5019987;28;20413;-85
2022/11/04 12:40:22;;;;;;;66.70;5.23;;;13.40;99.90;;;;;;5037673;28;20446;-85
2022/11/04 12:42:56;;;;;;;67.43;6.33;;;13.30;99.90;;;;;;5038444;28;20875;-86
2022/11/04 12:45:28;;;;;;;66.57;5.50;;;13.20;99.90;;;;;;5037444;28;20398;-85
2022/11/04 12:48:01;;;;;;;66.23;4.50;;;13.20;99.90;;;;;;5019896;28;20436;-85
2022/11/04 12:50:37;;;;;;;68.53;5.17;;;13.10;99.90;;;;;;5038172;28;20424;-85
2022/11/04 12:53:05;;;;;;;66.37;4.93;;;13.20;99.90;;;;;;5038165;28;20872;-85
2022/11/04 12:56:00;;;;;;;73.37;4.90;;;13.20;99.90;;;;;;5037465;28;20404;-85
2022/11/04 12:58:50;;;;;;;66.83;5.27;;;13.10;99.90;;;;;;5037131;28;20409;-85
2022/11/04 13:01:28;;;;;;;64.17;4.07;;;13.10;99.90;;;;;;5019314;28;20408;-85
2022/11/04 13:04:12;;;;;;;65.00;4.63;;;13.20;99.90;;;;;;5036377;28;20435;-85
2022/11/04 13:06:53;;;;;;;67.60;5.10;;;13.20;99.90;;;;;;5019295;28;20447;-83
2022/11/04 13:09:28;;;;;;;66.47;4.97;;;13.30;99.90;;;;;;5037449;28;20423;-85
2022/11/04 13:12:03;;;;;;;65.30;4.43;;;13.50;99.90;;;;;;5036835;28;20372;-85
2022/11/04 13:14:43;;;;;;;67.43;4.97;;;13.60;99.90;;;;;;5037068;28;20388;-85
2022/11/04 13:17:14;;;;;;;65.27;4.20;;;13.60;99.90;;;;;;5036715;28;20875;-85
2022/11/04 13:20:29;;;;;;;65.77;5.10;;;13.60;99.90;;;;;;5036425;28;20423;-85
2022/11/04 13:23:00;;;;;;;66.60;5.17;;;13.50;99.90;;;;;;5012326;28;20416;-85
2022/11/04 13:25:50;;;;;;;68.32;5.15;;;13.30;99.90;;;;;;5017893;28;20768;-85
2022/11/04 13:28:18;;;;;;;65.20;4.77;;;13.20;99.90;;;;;;5036346;28;20192;-85
2022/11/04 13:38:19;;;;;;;68.73;5.10;;;13.40;99.90;;;;;;4926052;29;20418;-85
2022/11/04 13:41:10;;;;;;;66.63;5.20;;;13.40;99.90;;;;;;4959501;28;20443;-85
2022/11/04 13:43:37;;;;;;;67.10;5.57;;;13.40;99.90;;;;;;5035223;28;20400;-85
2022/11/04 13:49:35;;;;;;;67.63;5.13;;;13.40;99.90;;;;;;5024305;28;20443;-85
2022/11/04 13:52:11;;;;;;;70.73;5.73;;;13.50;99.90;;;;;;5035424;28;20820;-85
2022/11/04 13:54:53;;;;;;;72.03;5.70;;;13.50;99.70;;;;;;5035568;28;20376;-85
2022/11/04 14:01:28;;;;;;;66.60;5.80;;;13.40;99.90;;;;;;5034883;28;20929;-85
2022/11/04 14:04:25;;;;;;;65.20;4.17;;;13.30;99.90;;;;;;5036959;28;20412;-85
2022/11/04 14:07:03;;;;;;;65.80;4.90;;;13.30;99.90;;;;;;5017772;28;20567;-84
2022/11/04 14:09:35;;;;;;;66.93;5.13;;;13.40;99.90;;;;;;5018304;28;20970;-85